sensor_id;sensor_type;location;lat;lon;timestamp;temperature;humidity
1958;DHT22;979;51.076;13.748;2023-04-03T00:01:55;6.20;57.80
1958;DHT22;979;51.076;13.748;2023-04-03T00:04:29;6.20;57.80
1958;DHT22;979;51.076;13.748;2023-04-03T00:06:57;6.20;57.80
1958;DHT22;979;51.076;13.748;2023-04-03T00:09:26;6.10;57.60
1958;DHT22;979;51.076;13.748;2023-04-03T00:11:54;6.10;57.70
1958;DHT22;979;51.076;13.748;2023-04-03T00:14:24;6.20;57.80
1958;DHT22;979;51.076;13.748;2023-04-03T00:16:52;6.00;57.60
1958;DHT22;979;51.076;13.748;2023-04-03T00:19:21;6.00;57.70
1958;DHT22;979;51.076;13.748;2023-04-03T00:21:49;6.20;57.90
1958;DHT22;979;51.076;13.748;2023-04-03T00:24:18;6.00;57.70
1958;DHT22;979;51.076;13.748;2023-04-03T00:26:46;6.00;57.80
1958;DHT22;979;51.076;13.748;2023-04-03T00:29:14;6.20;57.90
1958;DHT22;979;51.076;13.748;2023-04-03T00:31:44;5.90;57.70
1958;DHT22;979;51.076;13.748;2023-04-03T00:34:13;5.90;57.60
1958;DHT22;979;51.076;13.748;2023-04-03T00:36:41;6.10;57.70
1958;DHT22;979;51.076;13.748;2023-04-03T00:39:10;5.80;57.60
1958;DHT22;979;51.076;13.748;2023-04-03T00:41:38;5.80;57.60
1958;DHT22;979;51.076;13.748;2023-04-03T00:47:11;6.00;57.60
1958;DHT22;979;51.076;13.748;2023-04-03T00:49:42;5.70;57.40
1958;DHT22;979;51.076;13.748;2023-04-03T00:52:14;5.70;57.40
1958;DHT22;979;51.076;13.748;2023-04-03T00:54:45;5.70;57.40
1958;DHT22;979;51.076;13.748;2023-04-03T00:57:15;5.70;57.50
1958;DHT22;979;51.076;13.748;2023-04-03T00:59:46;5.90;57.70
1958;DHT22;979;51.076;13.748;2023-04-03T01:02:18;5.70;57.50
1958;DHT22;979;51.076;13.748;2023-04-03T01:04:46;5.70;57.50
1958;DHT22;979;51.076;13.748;2023-04-03T01:07:16;5.70;57.60
1958;DHT22;979;51.076;13.748;2023-04-03T01:09:47;5.70;57.50
1958;DHT22;979;51.076;13.748;2023-04-03T01:12:19;5.80;57.50
1958;DHT22;979;51.076;13.748;2023-04-03T01:14:53;5.60;57.30
1958;DHT22;979;51.076;13.748;2023-04-03T01:17:31;5.60;57.30
1958;DHT22;979;51.076;13.748;2023-04-03T01:23:27;5.50;57.10
1958;DHT22;979;51.076;13.748;2023-04-03T01:25:58;5.40;57.10
1958;DHT22;979;51.076;13.748;2023-04-03T01:28:29;5.40;57.10
1958;DHT22;979;51.076;13.748;2023-04-03T01:31:03;5.30;57.00
1958;DHT22;979;51.076;13.748;2023-04-03T01:33:39;5.50;57.30
1958;DHT22;979;51.076;13.748;2023-04-03T01:36:08;5.30;57.20
1958;DHT22;979;51.076;13.748;2023-04-03T01:38:37;5.50;57.30
1958;DHT22;979;51.076;13.748;2023-04-03T01:41:05;5.60;57.40
1958;DHT22;979;51.076;13.748;2023-04-03T01:43:34;5.20;57.20
1958;DHT22;979;51.076;13.748;2023-04-03T01:46:03;5.20;57.20
1958;DHT22;979;51.076;13.748;2023-04-03T01:48:33;5.20;57.20
1958;DHT22;979;51.076;13.748;2023-04-03T01:51:07;5.10;57.20
1958;DHT22;979;51.076;13.748;2023-04-03T01:53:36;5.10;57.10
1958;DHT22;979;51.076;13.748;2023-04-03T01:56:05;5.10;57.10
1958;DHT22;979;51.076;13.748;2023-04-03T01:58:35;5.10;57.00
1958;DHT22;979;51.076;13.748;2023-04-03T02:01:03;5.00;57.00
1958;DHT22;979;51.076;13.748;2023-04-03T02:03:32;5.00;56.90
1958;DHT22;979;51.076;13.748;2023-04-03T02:06:02;4.90;56.90
1958;DHT22;979;51.076;13.748;2023-04-03T02:08:31;4.90;56.90
1958;DHT22;979;51.076;13.748;2023-04-03T02:11:01;4.90;57.10
1958;DHT22;979;51.076;13.748;2023-04-03T02:13:30;4.90;57.10
1958;DHT22;979;51.076;13.748;2023-04-03T02:15:59;4.90;57.10
1958;DHT22;979;51.076;13.748;2023-04-03T02:18:33;4.90;56.90
1958;DHT22;979;51.076;13.748;2023-04-03T02:21:03;4.80;56.80
1958;DHT22;979;51.076;13.748;2023-04-03T02:23:32;4.70;56.70
1958;DHT22;979;51.076;13.748;2023-04-03T02:26:08;4.60;56.70
1958;DHT22;979;51.076;13.748;2023-04-03T02:28:39;4.50;56.60
1958;DHT22;979;51.076;13.748;2023-04-03T02:31:09;4.50;57.30
1958;DHT22;979;51.076;13.748;2023-04-03T02:33:40;4.50;56.80
1958;DHT22;979;51.076;13.748;2023-04-03T02:36:12;4.40;56.80
1958;DHT22;979;51.076;13.748;2023-04-03T02:38:43;4.30;57.00
1958;DHT22;979;51.076;13.748;2023-04-03T02:41:12;4.30;56.70
1958;DHT22;979;51.076;13.748;2023-04-03T02:43:41;4.20;56.60
1958;DHT22;979;51.076;13.748;2023-04-03T02:46:09;4.40;57.00
1958;DHT22;979;51.076;13.748;2023-04-03T02:48:38;4.20;56.80
1958;DHT22;979;51.076;13.748;2023-04-03T02:51:07;4.10;56.80
1958;DHT22;979;51.076;13.748;2023-04-03T02:53:40;4.00;56.80
1958;DHT22;979;51.076;13.748;2023-04-03T02:56:14;4.00;56.80
1958;DHT22;979;51.076;13.748;2023-04-03T02:58:46;4.00;56.70
1958;DHT22;979;51.076;13.748;2023-04-03T03:01:18;3.90;56.60
1958;DHT22;979;51.076;13.748;2023-04-03T03:03:46;3.80;56.70
1958;DHT22;979;51.076;13.748;2023-04-03T03:06:16;3.80;56.80
1958;DHT22;979;51.076;13.748;2023-04-03T03:08:48;3.70;56.60
1958;DHT22;979;51.076;13.748;2023-04-03T03:11:16;3.60;56.70
1958;DHT22;979;51.076;13.748;2023-04-03T03:13:45;3.50;56.70
1958;DHT22;979;51.076;13.748;2023-04-03T03:16:13;3.50;56.80
1958;DHT22;979;51.076;13.748;2023-04-03T03:18:43;3.40;56.70
1958;DHT22;979;51.076;13.748;2023-04-03T03:21:12;3.30;56.70
1958;DHT22;979;51.076;13.748;2023-04-03T03:23:40;3.30;56.80
1958;DHT22;979;51.076;13.748;2023-04-03T03:26:10;3.30;56.90
1958;DHT22;979;51.076;13.748;2023-04-03T03:28:39;3.20;57.00
1958;DHT22;979;51.076;13.748;2023-04-03T03:31:08;3.30;57.10
1958;DHT22;979;51.076;13.748;2023-04-03T03:33:38;3.10;57.00
1958;DHT22;979;51.076;13.748;2023-04-03T03:36:09;3.00;57.00
1958;DHT22;979;51.076;13.748;2023-04-03T03:38:37;3.00;57.10
1958;DHT22;979;51.076;13.748;2023-04-03T03:41:06;2.90;57.10
1958;DHT22;979;51.076;13.748;2023-04-03T03:43:36;3.00;57.20
1958;DHT22;979;51.076;13.748;2023-04-03T03:46:06;2.90;57.20
1958;DHT22;979;51.076;13.748;2023-04-03T03:48:34;2.80;57.10
1958;DHT22;979;51.076;13.748;2023-04-03T03:51:05;2.80;57.20
1958;DHT22;979;51.076;13.748;2023-04-03T03:53:36;2.70;57.20
1958;DHT22;979;51.076;13.748;2023-04-03T03:56:08;2.70;57.20
1958;DHT22;979;51.076;13.748;2023-04-03T03:58:40;2.90;57.80
1958;DHT22;979;51.076;13.748;2023-04-03T04:01:08;2.80;57.40
1958;DHT22;979;51.076;13.748;2023-04-03T04:03:45;2.50;57.20
1958;DHT22;979;51.076;13.748;2023-04-03T04:06:18;2.50;57.40
1958;DHT22;979;51.076;13.748;2023-04-03T04:08:47;2.40;57.30
1958;DHT22;979;51.076;13.748;2023-04-03T04:11:15;2.40;57.50
1958;DHT22;979;51.076;13.748;2023-04-03T04:13:48;2.50;57.60
1958;DHT22;979;51.076;13.748;2023-04-03T04:16:18;2.40;57.60
1958;DHT22;979;51.076;13.748;2023-04-03T04:18:46;2.40;57.60
1958;DHT22;979;51.076;13.748;2023-04-03T04:21:15;2.30;57.50
1958;DHT22;979;51.076;13.748;2023-04-03T04:23:44;2.30;57.60
1958;DHT22;979;51.076;13.748;2023-04-03T04:26:13;2.50;57.90
1958;DHT22;979;51.076;13.748;2023-04-03T04:28:41;2.20;57.70
1958;DHT22;979;51.076;13.748;2023-04-03T04:31:11;2.30;57.80
1958;DHT22;979;51.076;13.748;2023-04-03T04:33:40;2.20;57.80
1958;DHT22;979;51.076;13.748;2023-04-03T04:36:11;2.10;57.80
1958;DHT22;979;51.076;13.748;2023-04-03T04:38:44;2.10;57.90
1958;DHT22;979;51.076;13.748;2023-04-03T04:41:15;2.00;57.90
1958;DHT22;979;51.076;13.748;2023-04-03T04:43:44;2.00;58.00
1958;DHT22;979;51.076;13.748;2023-04-03T04:46:14;2.10;58.20
1958;DHT22;979;51.076;13.748;2023-04-03T04:48:48;2.00;58.20
1958;DHT22;979;51.076;13.748;2023-04-03T04:51:19;1.90;58.20
1958;DHT22;979;51.076;13.748;2023-04-03T04:53:47;1.90;58.80
1958;DHT22;979;51.076;13.748;2023-04-03T04:56:17;1.90;58.30
1958;DHT22;979;51.076;13.748;2023-04-03T04:58:48;1.90;58.40
1958;DHT22;979;51.076;13.748;2023-04-03T05:01:20;1.80;58.20
1958;DHT22;979;51.076;13.748;2023-04-03T05:03:56;1.90;58.40
1958;DHT22;979;51.076;13.748;2023-04-03T05:06:25;1.80;58.60
1958;DHT22;979;51.076;13.748;2023-04-03T05:08:55;1.90;58.90
1958;DHT22;979;51.076;13.748;2023-04-03T05:11:24;1.90;59.00
1958;DHT22;979;51.076;13.748;2023-04-03T05:13:53;2.10;59.20
1958;DHT22;979;51.076;13.748;2023-04-03T05:16:24;2.00;59.30
1958;DHT22;979;51.076;13.748;2023-04-03T05:18:54;2.00;59.50
1958;DHT22;979;51.076;13.748;2023-04-03T05:21:23;2.10;59.50
1958;DHT22;979;51.076;13.748;2023-04-03T05:23:53;2.30;59.60
1958;DHT22;979;51.076;13.748;2023-04-03T05:26:22;2.00;59.40
1958;DHT22;979;51.076;13.748;2023-04-03T05:28:50;2.10;59.40
1958;DHT22;979;51.076;13.748;2023-04-03T05:31:19;2.00;59.30
1958;DHT22;979;51.076;13.748;2023-04-03T05:33:50;2.10;59.50
1958;DHT22;979;51.076;13.748;2023-04-03T05:36:21;2.10;59.60
1958;DHT22;979;51.076;13.748;2023-04-03T05:38:55;2.30;59.80
1958;DHT22;979;51.076;13.748;2023-04-03T05:41:26;2.10;59.70
1958;DHT22;979;51.076;13.748;2023-04-03T05:43:55;2.30;60.10
1958;DHT22;979;51.076;13.748;2023-04-03T05:46:25;2.10;60.00
1958;DHT22;979;51.076;13.748;2023-04-03T05:48:57;2.20;60.20
1958;DHT22;979;51.076;13.748;2023-04-03T05:51:33;2.20;60.30
1958;DHT22;979;51.076;13.748;2023-04-03T05:54:13;2.30;60.30
1958;DHT22;979;51.076;13.748;2023-04-03T05:56:46;2.40;60.50
1958;DHT22;979;51.076;13.748;2023-04-03T05:59:15;2.40;60.50
1958;DHT22;979;51.076;13.748;2023-04-03T06:01:44;2.50;60.50
1958;DHT22;979;51.076;13.748;2023-04-03T06:04:14;2.60;60.50
1958;DHT22;979;51.076;13.748;2023-04-03T06:06:44;2.60;60.50
1958;DHT22;979;51.076;13.748;2023-04-03T06:09:15;2.60;60.30
1958;DHT22;979;51.076;13.748;2023-04-03T06:11:44;2.70;60.50
1958;DHT22;979;51.076;13.748;2023-04-03T06:14:13;3.00;60.90
1958;DHT22;979;51.076;13.748;2023-04-03T06:16:41;2.90;60.70
1958;DHT22;979;51.076;13.748;2023-04-03T06:19:11;3.00;60.60
1958;DHT22;979;51.076;13.748;2023-04-03T06:21:46;3.00;60.50
1958;DHT22;979;51.076;13.748;2023-04-03T06:24:16;3.10;60.70
1958;DHT22;979;51.076;13.748;2023-04-03T06:26:45;3.50;61.10
1958;DHT22;979;51.076;13.748;2023-04-03T06:29:13;3.50;60.90
1958;DHT22;979;51.076;13.748;2023-04-03T06:31:44;3.60;61.10
1958;DHT22;979;51.076;13.748;2023-04-03T06:34:15;3.70;61.00
1958;DHT22;979;51.076;13.748;2023-04-03T06:36:46;3.90;60.80
1958;DHT22;979;51.076;13.748;2023-04-03T06:39:17;4.00;60.60
1958;DHT22;979;51.076;13.748;2023-04-03T06:41:49;4.20;60.30
1958;DHT22;979;51.076;13.748;2023-04-03T06:44:26;4.20;60.30
1958;DHT22;979;51.076;13.748;2023-04-03T06:56:01;4.20;60.10
1958;DHT22;979;51.076;13.748;2023-04-03T06:58:38;4.30;60.10
1958;DHT22;979;51.076;13.748;2023-04-03T07:01:14;4.40;60.30
1958;DHT22;979;51.076;13.748;2023-04-03T07:03:52;4.50;60.20
1958;DHT22;979;51.076;13.748;2023-04-03T07:06:44;4.60;60.10
1958;DHT22;979;51.076;13.748;2023-04-03T07:09:51;4.70;59.80
1958;DHT22;979;51.076;13.748;2023-04-03T07:12:55;4.80;60.10
1958;DHT22;979;51.076;13.748;2023-04-03T07:15:26;4.80;60.10
1958;DHT22;979;51.076;13.748;2023-04-03T07:18:23;4.70;60.00
1958;DHT22;979;51.076;13.748;2023-04-03T07:21:12;5.00;60.80
1958;DHT22;979;51.076;13.748;2023-04-03T07:24:04;5.20;60.00
1958;DHT22;979;51.076;13.748;2023-04-03T07:27:40;5.30;59.80
1958;DHT22;979;51.076;13.748;2023-04-03T08:08:29;6.10;58.60
1958;DHT22;979;51.076;13.748;2023-04-03T08:11:25;6.50;59.00
1958;DHT22;979;51.076;13.748;2023-04-03T08:14:22;6.30;58.50
1958;DHT22;979;51.076;13.748;2023-04-03T08:35:40;7.00;57.90
1958;DHT22;979;51.076;13.748;2023-04-03T08:38:09;7.10;58.00
1958;DHT22;979;51.076;13.748;2023-04-03T08:40:41;7.20;58.10
1958;DHT22;979;51.076;13.748;2023-04-03T08:43:48;7.20;57.60
1958;DHT22;979;51.076;13.748;2023-04-03T08:50:29;7.00;57.20
1958;DHT22;979;51.076;13.748;2023-04-03T09:04:29;7.40;57.60
1958;DHT22;979;51.076;13.748;2023-04-03T09:07:32;7.60;57.10
1958;DHT22;979;51.076;13.748;2023-04-03T09:10:42;7.70;57.00
1958;DHT22;979;51.076;13.748;2023-04-03T09:13:55;7.80;57.10
1958;DHT22;979;51.076;13.748;2023-04-03T09:17:09;7.80;57.00
1958;DHT22;979;51.076;13.748;2023-04-03T09:21:03;8.00;57.00
1958;DHT22;979;51.076;13.748;2023-04-03T09:24:33;8.20;56.60
1958;DHT22;979;51.076;13.748;2023-04-03T09:28:07;8.20;56.20
1958;DHT22;979;51.076;13.748;2023-04-03T09:32:19;8.10;55.80
1958;DHT22;979;51.076;13.748;2023-04-03T09:35:34;8.00;55.80
1958;DHT22;979;51.076;13.748;2023-04-03T09:38:38;8.10;55.60
1958;DHT22;979;51.076;13.748;2023-04-03T09:45:52;8.30;55.90
1958;DHT22;979;51.076;13.748;2023-04-03T09:49:13;8.40;55.50
1958;DHT22;979;51.076;13.748;2023-04-03T09:52:42;8.40;55.60
1958;DHT22;979;51.076;13.748;2023-04-03T11:11:47;9.90;49.00
1958;DHT22;979;51.076;13.748;2023-04-03T11:14:45;9.80;48.40
1958;DHT22;979;51.076;13.748;2023-04-03T11:17:48;9.80;48.60
1958;DHT22;979;51.076;13.748;2023-04-03T11:21:04;9.90;49.00
1958;DHT22;979;51.076;13.748;2023-04-03T11:24:20;10.00;48.00
1958;DHT22;979;51.076;13.748;2023-04-03T11:27:22;10.20;47.70
1958;DHT22;979;51.076;13.748;2023-04-03T11:30:33;10.80;47.80
1958;DHT22;979;51.076;13.748;2023-04-03T11:33:58;11.00;47.10
1958;DHT22;979;51.076;13.748;2023-04-03T11:37:15;11.10;46.30
1958;DHT22;979;51.076;13.748;2023-04-03T11:39:58;11.00;45.90
1958;DHT22;979;51.076;13.748;2023-04-03T14:30:30;10.50;40.20
1958;DHT22;979;51.076;13.748;2023-04-03T14:33:43;10.20;40.70
1958;DHT22;979;51.076;13.748;2023-04-03T14:43:08;9.80;42.20
1958;DHT22;979;51.076;13.748;2023-04-03T15:22:35;10.90;40.30
1958;DHT22;979;51.076;13.748;2023-04-03T15:25:07;10.80;40.30
1958;DHT22;979;51.076;13.748;2023-04-03T15:27:39;10.60;40.20
1958;DHT22;979;51.076;13.748;2023-04-03T15:30:13;10.50;40.40
1958;DHT22;979;51.076;13.748;2023-04-03T15:32:42;10.30;40.10
1958;DHT22;979;51.076;13.748;2023-04-03T15:35:11;10.10;40.30
1958;DHT22;979;51.076;13.748;2023-04-03T15:37:41;9.90;41.20
1958;DHT22;979;51.076;13.748;2023-04-03T15:40:10;9.70;41.30
1958;DHT22;979;51.076;13.748;2023-04-03T15:42:39;9.60;41.30
1958;DHT22;979;51.076;13.748;2023-04-03T15:45:09;9.50;41.70
1958;DHT22;979;51.076;13.748;2023-04-03T15:47:38;9.40;41.90
1958;DHT22;979;51.076;13.748;2023-04-03T15:50:10;9.40;42.20
1958;DHT22;979;51.076;13.748;2023-04-03T15:52:38;9.40;41.70
1958;DHT22;979;51.076;13.748;2023-04-03T15:55:09;9.30;41.90
1958;DHT22;979;51.076;13.748;2023-04-03T15:57:40;9.20;42.10
1958;DHT22;979;51.076;13.748;2023-04-03T16:00:10;9.10;42.10
1958;DHT22;979;51.076;13.748;2023-04-03T16:02:39;9.10;42.10
1958;DHT22;979;51.076;13.748;2023-04-03T16:05:11;8.80;42.00
1958;DHT22;979;51.076;13.748;2023-04-03T16:07:43;8.70;42.10
1958;DHT22;979;51.076;13.748;2023-04-03T16:10:17;8.70;42.40
1958;DHT22;979;51.076;13.748;2023-04-03T16:12:46;8.60;42.40
1958;DHT22;979;51.076;13.748;2023-04-03T16:15:15;8.60;42.60
1958;DHT22;979;51.076;13.748;2023-04-03T16:17:48;8.50;42.70
1958;DHT22;979;51.076;13.748;2023-04-03T16:20:17;8.60;42.80
1958;DHT22;979;51.076;13.748;2023-04-03T16:22:50;8.50;42.60
1958;DHT22;979;51.076;13.748;2023-04-03T16:25:22;8.50;42.90
1958;DHT22;979;51.076;13.748;2023-04-03T16:27:57;8.40;42.70
1958;DHT22;979;51.076;13.748;2023-04-03T16:30:27;8.40;43.00
1958;DHT22;979;51.076;13.748;2023-04-03T16:32:56;8.40;43.00
1958;DHT22;979;51.076;13.748;2023-04-03T16:35:30;8.20;42.90
1958;DHT22;979;51.076;13.748;2023-04-03T16:37:58;8.10;42.90
1958;DHT22;979;51.076;13.748;2023-04-03T16:40:30;8.00;43.30
1958;DHT22;979;51.076;13.748;2023-04-03T16:43:01;7.90;43.10
1958;DHT22;979;51.076;13.748;2023-04-03T16:45:30;7.90;43.30
1958;DHT22;979;51.076;13.748;2023-04-03T16:47:59;7.80;43.50
1958;DHT22;979;51.076;13.748;2023-04-03T16:50:36;7.70;43.40
1958;DHT22;979;51.076;13.748;2023-04-03T17:00:29;7.70;43.20
1958;DHT22;979;51.076;13.748;2023-04-03T17:03:00;7.40;43.10
1958;DHT22;979;51.076;13.748;2023-04-03T17:05:33;7.50;43.20
1958;DHT22;979;51.076;13.748;2023-04-03T17:08:02;7.70;43.40
1958;DHT22;979;51.076;13.748;2023-04-03T17:10:31;7.40;43.00
1958;DHT22;979;51.076;13.748;2023-04-03T17:13:18;7.40;43.20
1958;DHT22;979;51.076;13.748;2023-04-03T17:15:48;7.30;43.10
1958;DHT22;979;51.076;13.748;2023-04-03T17:18:16;7.20;43.10
1958;DHT22;979;51.076;13.748;2023-04-03T17:20:45;7.30;43.30
1958;DHT22;979;51.076;13.748;2023-04-03T17:23:13;7.00;43.10
1958;DHT22;979;51.076;13.748;2023-04-03T17:25:41;7.00;43.20
1958;DHT22;979;51.076;13.748;2023-04-03T17:28:09;6.90;43.20
1958;DHT22;979;51.076;13.748;2023-04-03T17:30:38;6.80;43.30
1958;DHT22;979;51.076;13.748;2023-04-03T17:33:07;6.60;43.20
1958;DHT22;979;51.076;13.748;2023-04-03T17:35:36;6.50;43.20
1958;DHT22;979;51.076;13.748;2023-04-03T17:38:04;6.50;43.40
1958;DHT22;979;51.076;13.748;2023-04-03T17:40:33;6.30;43.30
1958;DHT22;979;51.076;13.748;2023-04-03T17:43:01;6.30;43.40
1958;DHT22;979;51.076;13.748;2023-04-03T17:45:30;6.30;43.60
1958;DHT22;979;51.076;13.748;2023-04-03T17:47:59;6.10;43.50
1958;DHT22;979;51.076;13.748;2023-04-03T17:50:28;6.00;43.60
1958;DHT22;979;51.076;13.748;2023-04-03T17:52:57;5.90;43.60
1958;DHT22;979;51.076;13.748;2023-04-03T17:55:26;5.90;43.60
1958;DHT22;979;51.076;13.748;2023-04-03T17:57:54;5.80;43.50
1958;DHT22;979;51.076;13.748;2023-04-03T18:00:27;6.00;43.80
1958;DHT22;979;51.076;13.748;2023-04-03T18:02:55;5.70;43.60
1958;DHT22;979;51.076;13.748;2023-04-03T18:05:28;5.70;43.80
1958;DHT22;979;51.076;13.748;2023-04-03T18:08:03;5.70;43.80
1958;DHT22;979;51.076;13.748;2023-04-03T18:10:32;5.60;43.70
1958;DHT22;979;51.076;13.748;2023-04-03T18:13:05;5.70;44.00
1958;DHT22;979;51.076;13.748;2023-04-03T18:15:37;5.60;44.00
1958;DHT22;979;51.076;13.748;2023-04-03T18:18:11;5.50;44.10
1958;DHT22;979;51.076;13.748;2023-04-03T18:20:43;5.50;44.20
1958;DHT22;979;51.076;13.748;2023-04-03T18:23:12;5.40;44.20
1958;DHT22;979;51.076;13.748;2023-04-03T18:25:40;5.40;44.30
1958;DHT22;979;51.076;13.748;2023-04-03T18:28:08;5.30;44.40
1958;DHT22;979;51.076;13.748;2023-04-03T18:30:37;5.40;44.70
1958;DHT22;979;51.076;13.748;2023-04-03T18:33:06;5.20;45.20
1958;DHT22;979;51.076;13.748;2023-04-03T18:35:34;5.40;44.80
1958;DHT22;979;51.076;13.748;2023-04-03T18:38:14;5.10;44.80
1958;DHT22;979;51.076;13.748;2023-04-03T18:40:46;5.20;44.70
1958;DHT22;979;51.076;13.748;2023-04-03T18:43:16;5.20;45.10
1958;DHT22;979;51.076;13.748;2023-04-03T18:45:45;5.20;45.10
1958;DHT22;979;51.076;13.748;2023-04-03T18:48:16;5.20;45.00
1958;DHT22;979;51.076;13.748;2023-04-03T18:50:45;5.30;45.10
1958;DHT22;979;51.076;13.748;2023-04-03T18:53:17;5.30;45.20
1958;DHT22;979;51.076;13.748;2023-04-03T18:55:46;5.30;45.30
1958;DHT22;979;51.076;13.748;2023-04-03T18:58:15;5.40;45.40
1958;DHT22;979;51.076;13.748;2023-04-03T19:00:46;5.40;45.40
1958;DHT22;979;51.076;13.748;2023-04-03T19:03:14;5.40;45.50
1958;DHT22;979;51.076;13.748;2023-04-03T19:05:44;5.40;45.40
1958;DHT22;979;51.076;13.748;2023-04-03T19:08:13;5.40;45.60
1958;DHT22;979;51.076;13.748;2023-04-03T19:10:43;5.30;45.60
1958;DHT22;979;51.076;13.748;2023-04-03T19:13:11;5.40;45.90
1958;DHT22;979;51.076;13.748;2023-04-03T19:15:40;5.40;45.80
1958;DHT22;979;51.076;13.748;2023-04-03T19:18:08;5.40;45.80
1958;DHT22;979;51.076;13.748;2023-04-03T19:20:37;5.40;45.90
1958;DHT22;979;51.076;13.748;2023-04-03T19:23:05;5.50;46.00
1958;DHT22;979;51.076;13.748;2023-04-03T19:25:34;5.50;46.00
1958;DHT22;979;51.076;13.748;2023-04-03T19:28:05;5.50;46.00
1958;DHT22;979;51.076;13.748;2023-04-03T19:30:36;5.60;46.10
1958;DHT22;979;51.076;13.748;2023-04-03T19:33:05;5.50;46.00
1958;DHT22;979;51.076;13.748;2023-04-03T19:35:34;5.70;46.30
1958;DHT22;979;51.076;13.748;2023-04-03T19:38:02;5.90;46.40
1958;DHT22;979;51.076;13.748;2023-04-03T19:40:34;5.70;46.30
1958;DHT22;979;51.076;13.748;2023-04-03T19:43:05;5.70;46.30
1958;DHT22;979;51.076;13.748;2023-04-03T19:45:34;5.90;46.50
1958;DHT22;979;51.076;13.748;2023-04-03T19:48:03;5.80;46.50
1958;DHT22;979;51.076;13.748;2023-04-03T19:50:36;5.80;46.50
1958;DHT22;979;51.076;13.748;2023-04-03T19:53:04;5.70;46.40
1958;DHT22;979;51.076;13.748;2023-04-03T19:55:36;5.70;46.50
1958;DHT22;979;51.076;13.748;2023-04-03T19:58:06;5.70;46.50
1958;DHT22;979;51.076;13.748;2023-04-03T20:00:35;5.70;46.60
1958;DHT22;979;51.076;13.748;2023-04-03T20:03:04;5.80;46.80
1958;DHT22;979;51.076;13.748;2023-04-03T20:05:34;5.70;46.80
1958;DHT22;979;51.076;13.748;2023-04-03T20:08:02;5.70;46.80
1958;DHT22;979;51.076;13.748;2023-04-03T20:10:31;5.70;46.70
1958;DHT22;979;51.076;13.748;2023-04-03T20:13:03;5.70;46.80
1958;DHT22;979;51.076;13.748;2023-04-03T20:15:37;5.80;47.00
1958;DHT22;979;51.076;13.748;2023-04-03T20:18:07;5.60;46.80
1958;DHT22;979;51.076;13.748;2023-04-03T20:20:36;5.60;46.80
1958;DHT22;979;51.076;13.748;2023-04-03T20:23:08;5.60;46.80
1958;DHT22;979;51.076;13.748;2023-04-03T20:25:44;5.60;46.80
1958;DHT22;979;51.076;13.748;2023-04-03T20:28:27;5.80;47.10
1958;DHT22;979;51.076;13.748;2023-04-03T20:30:57;5.60;47.10
1958;DHT22;979;51.076;13.748;2023-04-03T20:33:30;5.50;47.00
1958;DHT22;979;51.076;13.748;2023-04-03T20:35:58;5.50;47.20
1958;DHT22;979;51.076;13.748;2023-04-03T20:38:27;5.70;47.40
1958;DHT22;979;51.076;13.748;2023-04-03T20:40:56;5.50;47.40
1958;DHT22;979;51.076;13.748;2023-04-03T20:43:24;5.50;47.60
1958;DHT22;979;51.076;13.748;2023-04-03T20:45:57;5.60;47.70
1958;DHT22;979;51.076;13.748;2023-04-03T20:48:26;5.80;47.80
1958;DHT22;979;51.076;13.748;2023-04-03T20:50:55;5.70;48.00
1958;DHT22;979;51.076;13.748;2023-04-03T20:53:24;5.50;47.90
1958;DHT22;979;51.076;13.748;2023-04-03T20:55:56;5.50;48.00
1958;DHT22;979;51.076;13.748;2023-04-03T20:58:29;5.50;48.00
1958;DHT22;979;51.076;13.748;2023-04-03T21:01:12;5.50;48.10
1958;DHT22;979;51.076;13.748;2023-04-03T21:03:41;5.70;48.50
1958;DHT22;979;51.076;13.748;2023-04-03T21:21:04;5.70;48.90
1958;DHT22;979;51.076;13.748;2023-04-03T21:23:32;5.70;49.10
1958;DHT22;979;51.076;13.748;2023-04-03T21:26:01;5.70;49.20
1958;DHT22;979;51.076;13.748;2023-04-03T21:28:29;5.70;49.10
1958;DHT22;979;51.076;13.748;2023-04-03T21:30:57;5.80;49.30
1958;DHT22;979;51.076;13.748;2023-04-03T21:33:27;5.80;49.40
1958;DHT22;979;51.076;13.748;2023-04-03T21:35:55;5.80;49.50
1958;DHT22;979;51.076;13.748;2023-04-03T21:38:25;6.00;49.70
1958;DHT22;979;51.076;13.748;2023-04-03T21:40:55;5.90;49.80
1958;DHT22;979;51.076;13.748;2023-04-03T21:43:23;5.80;49.80
1958;DHT22;979;51.076;13.748;2023-04-03T21:45:53;5.90;50.00
1958;DHT22;979;51.076;13.748;2023-04-03T21:48:24;5.90;50.00
1958;DHT22;979;51.076;13.748;2023-04-03T21:51:04;5.90;50.20
1958;DHT22;979;51.076;13.748;2023-04-03T21:53:34;5.90;50.20
1958;DHT22;979;51.076;13.748;2023-04-03T21:56:33;5.90;50.40
1958;DHT22;979;51.076;13.748;2023-04-03T21:59:20;5.90;50.50
1958;DHT22;979;51.076;13.748;2023-04-03T22:02:06;5.80;50.60
1958;DHT22;979;51.076;13.748;2023-04-03T22:05:03;6.00;50.90
1958;DHT22;979;51.076;13.748;2023-04-03T22:07:53;5.80;50.70
1958;DHT22;979;51.076;13.748;2023-04-03T22:11:04;5.80;50.90
1958;DHT22;979;51.076;13.748;2023-04-03T22:14:30;6.00;51.00
1958;DHT22;979;51.076;13.748;2023-04-03T22:18:25;5.80;51.10
1958;DHT22;979;51.076;13.748;2023-04-03T22:22:28;5.60;51.00
1958;DHT22;979;51.076;13.748;2023-04-03T22:47:47;5.60;51.90
1958;DHT22;979;51.076;13.748;2023-04-03T22:50:51;5.60;52.30
1958;DHT22;979;51.076;13.748;2023-04-03T22:53:41;5.70;52.30
1958;DHT22;979;51.076;13.748;2023-04-03T22:56:19;5.70;52.30
1958;DHT22;979;51.076;13.748;2023-04-03T22:59:17;5.80;52.40
1958;DHT22;979;51.076;13.748;2023-04-03T23:02:13;5.60;52.70
1958;DHT22;979;51.076;13.748;2023-04-03T23:04:43;5.60;52.40
1958;DHT22;979;51.076;13.748;2023-04-03T23:07:17;5.60;52.50
1958;DHT22;979;51.076;13.748;2023-04-03T23:09:45;5.60;52.60
1958;DHT22;979;51.076;13.748;2023-04-03T23:12:14;5.70;52.70
1958;DHT22;979;51.076;13.748;2023-04-03T23:14:42;5.60;52.60
1958;DHT22;979;51.076;13.748;2023-04-03T23:17:10;5.80;52.90
1958;DHT22;979;51.076;13.748;2023-04-03T23:19:43;5.60;52.70
1958;DHT22;979;51.076;13.748;2023-04-03T23:22:11;5.80;52.80
1958;DHT22;979;51.076;13.748;2023-04-03T23:24:40;5.80;52.80
1958;DHT22;979;51.076;13.748;2023-04-03T23:27:11;5.70;52.70
1958;DHT22;979;51.076;13.748;2023-04-03T23:29:40;5.70;52.60
1958;DHT22;979;51.076;13.748;2023-04-03T23:32:09;5.70;52.60
1958;DHT22;979;51.076;13.748;2023-04-03T23:34:37;5.60;52.70
1958;DHT22;979;51.076;13.748;2023-04-03T23:37:10;5.80;52.90
1958;DHT22;979;51.076;13.748;2023-04-03T23:39:38;5.60;52.70
1958;DHT22;979;51.076;13.748;2023-04-03T23:42:07;5.60;52.80
1958;DHT22;979;51.076;13.748;2023-04-03T23:44:37;5.60;52.80
1958;DHT22;979;51.076;13.748;2023-04-03T23:47:06;5.80;53.00
1958;DHT22;979;51.076;13.748;2023-04-03T23:50:02;5.80;53.00
1958;DHT22;979;51.076;13.748;2023-04-03T23:52:46;5.60;53.10
1958;DHT22;979;51.076;13.748;2023-04-03T23:55:15;5.90;53.30
1958;DHT22;979;51.076;13.748;2023-04-03T23:57:44;5.60;53.20
